KGCC/GCC METAR and TAF weather

Enter ICAO airport designator
Station Type Date Time Source
KGCC METAR 2019/06/18 04:53 UTC NOAA

KGCC 180453Z AUTO 17010KT 10SM CLR 14/12 A3010 RMK AO2 SLP162 T01390117


Station Type Date Time Source
KGCC Decoded METAR 2019/06/18 04:53 UTC NOAA

GILLETTE-CAMPBELL CTY AIRPORT , WY, United States (KGCC) 44-20N 105-33W 1320M
Jun 18, 2019 - 12:53 AM EDT / 2019.06.18 0453 UTC
Wind: from the S (170 degrees) at 12 MPH (10 KT):0
Visibility: 10 mile(s):0
Sky conditions: clear
Temperature: 57.0 F (13.9 C)
Dew Point: 53.1 F (11.7 C)
Relative Humidity: 86%
Pressure (altimeter): 30.1 in. Hg (1019 hPa)
ob: KGCC 180453Z AUTO 17010KT 10SM CLR 14/12 A3010 RMK AO2 SLP162 T01390117
cycle: 5

Station Type Date Time Source
KGCC TAF 2019/06/18 06:22 UTC NOAA

TAF KGCC 180520Z 1806/1906 18010KT P6SM BKN100
FM181200 18010KT P6SM SCT010
FM181800 15008KT P6SM SCT050

Example: see airport list